Gretna, FL (32332)

11:53 PM EST on November 22, 2014 (GMT -0500)
Quincy Muni, Quincy, FL | Change Station
CLOSE
Current Station
Airport
Location: Quincy Muni, Quincy, FL,
Elevation: 226 ft
Nearby Weather Stations

Elev 226 ft 30.60 °N, 84.56 °W | Updated 18 minutes ago

Rain
Rain
63 °F
Feels Like 63 °F
N
7
Wind Variable Wind from East

Today
High -- | Low -- °F
--% Chance of Precip.
Yesterday
High -- | Low -- °F
Precip. -- in
7:10 AM 5:38 PM
New Moon, 1% visible
Pressure 30.10 in
Visibility 3.0 miles
Clouds Overcast 600 ft
Dew Point 61 °F
Humidity 94%
Rainfall 43.74 in
Snow Depth Not available.
UV 0 out of 12
Pollen 2.90 out of 12
Air Quality Not available.
Flu Activity Not available.
METAR K2J9 230435Z AUTO 09006KT 3SM OVC006 17/16 A3010 RMK AO1 P0016

More Conditions Fewer Conditions

Pressure 30.10 in
Visibility 3.0 miles
Clouds Overcast 600 ft
Dew Point 61 °F
Humidity 94%
Rainfall 43.74 in
Snow Depth Not available.
UV 0 out of 12
Pollen 2.90 out of 12
Air Quality Not available.
Flu Activity Not available.
METAR K2J9 230435Z AUTO 09006KT 3SM OVC006 17/16 A3010 RMK AO1 P0016

More Conditions Fewer Conditions

10-Day Weather Forecast

Almanac

Astronomy

Nov. 22, 2014 Rise Set
Actual Time
Civil Twilight
Nautical Twilight
Astronomical Twilight
Moon
Length of Visible Light
Length of Day
Tomorrow will be .
, % of the Moon is Illuminated

Today's Extremes

State Highs State Lows

Community

WunderPhotos

Upload Photos

1,773,003 photos uploaded!

WunderBlogs® & News

Nearby

Air Quality

  Air Quality AQ Index Pollutant
Not available.

Snow Depth

Station Depth Elevation

Earthquake Activity

City Distance Mag. Time & Date
Minimum magnitude displayed is 2.5.

Coastal Water Temperatures

Place Temperature

Nearby Weather Stations